Laughlin Air Force Base
KDLF : now visible

Airfield :











YOU CAN JOIN US ON...

 
LOGIN :

Register | Disclaimer

   EN    FR    IT 

 









Legend :    VFR   Marginal VFR   IFR   Intensive IFR   Very Intensive IFR
Visi :
Ceiling :
>= 8 km
>= 3000ft
5 to 8 km
1000 to 3000 ft
1500m to 5 km
500 to 1000 ft
800 to 1500m
200 to 500 ft
< 800m
< 200 ft
Symbols :   Thunderstorms  Fog  Heavy snow  Heavy precipitations  Wind > 20 kt






- Airport Elevation : 1082 ft


KDLF - Laughlin Air Force Base

CURRENT METAR :
  • 291356Z AUTO 31008KT 10SM CLR 02/M01 A3014 RMK AO2 SLP208 T00181008 $

EXPIRED METARs :
  • 291256Z AUTO 30006KT 10SM CLR 02/M01 A3013 RMK AO2 SLP204 T00191012 $
  • 291156Z 29004KT 10SM CLR 02/M01 A3012 RMK AO2A SLP200 T00231010 10079 20019 52008 $

TAF TAF KDLF
Valid from the 29 at 11:00 until the 30 at 17:00 UTC


291100Z 2911/3017 33006KT 9999 SKC QNH2996INS
BECMG 2922/2923 13006KT 9999 SKC QNH2995INS
BECMG 3008/3009 11012KT 9999 SCT012 BKN100 QNH3003INS
BECMG 3010/3011 11008KT 8000 BR BKN010 BKN080 QNH3004INS
TEMPO 3012/3014 BKN008
BECMG 3015/3016 12012KT 9999 NSW BKN015 QNH3010INS TX19/2920Z TN02/2911Z



MET'MAP, your aeronautical weather chart ! - Copyright ORBIFLY December 2007 - Disclaimer

ORBIFLY MET'MAP TEAM :

Programming & Development : Alexandra Zaïnal
Concept & original design : Baudouin d'Aumeries
Assistance for programming : Marc-Olivier Méhu
Technical & hardware support : Manuel Goepfert

Contact : metmap@orbifly.com




SOURCES & CREDITS :

   NOAA       Earth
Advisory